createdAt,value
2022-12-23T00:01:28.898Z,4.80
2022-12-23T00:03:59.623Z,3.87
2022-12-23T00:06:27.159Z,3.30
2022-12-23T00:08:59.089Z,3.80
2022-12-23T00:11:27.678Z,3.70
2022-12-23T00:14:20.098Z,4.00
2022-12-23T00:16:48.728Z,3.53
2022-12-23T00:19:15.694Z,3.77
2022-12-23T00:21:42.594Z,3.70
2022-12-23T00:24:09.523Z,2.70
2022-12-23T00:26:36.386Z,3.60
2022-12-23T00:29:03.322Z,3.70
2022-12-23T00:31:30.204Z,4.00
2022-12-23T00:33:57.174Z,3.13
2022-12-23T00:36:28.429Z,3.97
2022-12-23T00:39:15.155Z,4.00
2022-12-23T00:42:00.803Z,3.40
2022-12-23T00:44:28.081Z,3.20
2022-12-23T00:46:54.997Z,3.20
2022-12-23T00:49:40.358Z,3.50
2022-12-23T00:52:09.709Z,3.20
2022-12-23T00:54:36.968Z,4.03
2022-12-23T00:57:04.263Z,3.90
2022-12-23T00:59:31.665Z,4.00
2022-12-23T01:02:17.244Z,4.37
2022-12-23T01:05:02.607Z,3.47
2022-12-23T01:07:29.605Z,3.97
2022-12-23T01:09:56.471Z,4.00
2022-12-23T01:12:23.516Z,4.17
2022-12-23T01:14:50.426Z,4.03
2022-12-23T01:17:18.641Z,5.17
2022-12-23T01:19:45.693Z,3.87
2022-12-23T01:22:12.608Z,4.37
2022-12-23T01:24:39.532Z,4.23
2022-12-23T01:27:06.416Z,4.07
2022-12-23T01:29:33.347Z,4.33
2022-12-23T01:32:00.341Z,4.90
2022-12-23T01:34:32.575Z,4.80
2022-12-23T01:37:03.225Z,4.00
2022-12-23T01:39:30.094Z,3.97
2022-12-23T01:42:15.645Z,4.10
2022-12-23T01:45:02.584Z,4.10
2022-12-23T01:47:57.976Z,3.70
2022-12-23T01:50:27.943Z,3.77
2022-12-23T01:53:08.092Z,3.30
2022-12-23T01:55:55.835Z,3.27
2022-12-23T01:58:35.454Z,3.80
2022-12-23T02:01:20.815Z,3.63
2022-12-23T02:03:48.815Z,3.97
2022-12-23T02:06:46.883Z,3.73
2022-12-23T02:09:18.934Z,3.60
2022-12-23T02:12:16.526Z,3.30
2022-12-23T02:15:17.127Z,3.90
2022-12-23T02:17:53.088Z,3.37
2022-12-23T02:20:41.017Z,3.13
2022-12-23T02:23:55.711Z,4.40
2022-12-23T02:26:57.083Z,4.27
2022-12-23T02:29:30.148Z,3.27
2022-12-23T02:32:30.767Z,3.07
2022-12-23T02:35:13.679Z,2.70
2022-12-23T02:38:05.413Z,4.07
2022-12-23T02:40:37.571Z,3.13
2022-12-23T02:43:19.077Z,2.93
2022-12-23T02:45:50.439Z,2.97
2022-12-23T02:48:21.786Z,2.47
2022-12-23T02:50:49.423Z,2.40
2022-12-23T02:53:28.173Z,2.83
2022-12-23T02:55:56.473Z,2.13
2022-12-23T02:58:28.045Z,2.67
2022-12-23T03:00:55.936Z,2.37
2022-12-23T03:03:23.547Z,3.43
2022-12-23T03:05:51.666Z,3.03
2022-12-23T03:08:28.074Z,2.63
2022-12-23T03:10:54.895Z,3.90
2022-12-23T03:13:52.945Z,2.87
2022-12-23T03:16:23.342Z,3.57
2022-12-23T03:18:59.117Z,2.27
2022-12-23T03:21:55.007Z,2.57
2022-12-23T03:24:24.547Z,2.57
2022-12-23T03:26:56.064Z,2.50
2022-12-23T03:29:32.233Z,2.47
2022-12-23T03:32:00.571Z,3.10
2022-12-23T03:34:30.509Z,2.40
2022-12-23T03:36:59.348Z,2.80
2022-12-23T03:39:30.220Z,3.70
2022-12-23T03:42:02.652Z,3.90
2022-12-23T03:44:36.836Z,2.73
2022-12-23T03:47:12.901Z,2.30
2022-12-23T03:49:54.272Z,3.37
2022-12-23T03:52:31.509Z,3.37
2022-12-23T03:55:02.601Z,3.03
2022-12-23T03:57:37.168Z,2.97
2022-12-23T04:00:04.457Z,3.37
2022-12-23T04:02:39.421Z,3.10
2022-12-23T04:05:27.346Z,3.33
2022-12-23T04:08:02.119Z,2.53
2022-12-23T04:10:29.275Z,3.47
2022-12-23T04:12:56.250Z,3.43
2022-12-23T04:15:25.502Z,3.37
2022-12-23T04:17:54.321Z,2.70
2022-12-23T04:20:21.532Z,3.47
2022-12-23T04:22:48.560Z,3.33
2022-12-23T04:25:17.025Z,3.63
2022-12-23T04:27:44.159Z,3.40
2022-12-23T04:30:14.054Z,3.20
2022-12-23T04:32:41.895Z,3.93
2022-12-23T04:35:09.902Z,2.93
2022-12-23T04:37:36.911Z,3.43
2022-12-23T04:40:05.196Z,3.47
2022-12-23T04:42:32.196Z,3.77
2022-12-23T04:44:59.284Z,3.77
2022-12-23T04:47:26.356Z,3.63
2022-12-23T04:49:53.391Z,2.60
2022-12-23T04:52:20.380Z,3.90
2022-12-23T04:54:47.361Z,3.00
2022-12-23T04:57:15.776Z,2.87
2022-12-23T04:59:42.725Z,3.03
2022-12-23T05:02:09.786Z,2.43
2022-12-23T05:04:36.895Z,3.20
2022-12-23T05:07:03.806Z,4.30
2022-12-23T05:09:30.704Z,4.03
2022-12-23T05:11:57.606Z,3.23
2022-12-23T05:14:24.524Z,3.30
2022-12-23T05:16:51.482Z,3.67
2022-12-23T05:19:18.467Z,4.13
2022-12-23T05:21:45.444Z,3.53
2022-12-23T05:24:12.458Z,3.70
2022-12-23T05:26:39.325Z,5.00
2022-12-23T05:29:06.376Z,3.53
2022-12-23T05:31:33.361Z,3.70
2022-12-23T05:34:05.973Z,4.37
2022-12-23T05:36:33.645Z,4.33
2022-12-23T05:39:00.595Z,4.20
2022-12-23T05:41:27.522Z,4.60
2022-12-23T05:43:54.475Z,4.07
2022-12-23T05:46:26.136Z,5.97
2022-12-23T05:48:53.881Z,6.03
2022-12-23T05:51:20.848Z,5.80
2022-12-23T05:53:47.814Z,6.60
2022-12-23T05:56:14.724Z,6.10
2022-12-23T05:58:41.679Z,5.43
2022-12-23T06:01:08.613Z,6.20
2022-12-23T06:03:35.585Z,6.87
2022-12-23T06:06:02.594Z,7.37
2022-12-23T06:08:29.504Z,5.77
2022-12-23T06:10:56.487Z,5.60
2022-12-23T06:13:23.449Z,6.63
2022-12-23T06:15:50.461Z,5.77
2022-12-23T06:18:17.803Z,6.70
2022-12-23T06:20:48.193Z,5.97
2022-12-23T06:23:15.163Z,5.60
2022-12-23T06:25:42.025Z,6.67
2022-12-23T06:28:09.018Z,5.63
2022-12-23T06:30:35.942Z,6.20
2022-12-23T06:33:02.797Z,5.37
2022-12-23T06:35:29.750Z,4.90
2022-12-23T06:37:56.662Z,6.17
2022-12-23T06:40:23.596Z,5.00
2022-12-23T06:42:50.493Z,7.73
2022-12-23T06:45:17.499Z,5.27
2022-12-23T06:47:44.914Z,4.90
2022-12-23T06:50:11.903Z,5.37
2022-12-23T06:52:38.788Z,4.80
2022-12-23T06:55:06.189Z,5.07
2022-12-23T06:57:33.119Z,5.47
2022-12-23T06:59:59.994Z,4.97
2022-12-23T07:02:27.025Z,6.07
2022-12-23T07:04:54.001Z,5.50
2022-12-23T07:07:20.993Z,5.60
2022-12-23T07:09:47.873Z,5.53
2022-12-23T07:12:14.834Z,4.27
2022-12-23T07:14:41.708Z,4.67
2022-12-23T07:17:08.814Z,4.43
2022-12-23T07:19:36.056Z,4.93
2022-12-23T07:22:03.450Z,5.13
2022-12-23T07:24:30.393Z,4.50
2022-12-23T07:26:57.306Z,4.70
2022-12-23T07:29:24.175Z,5.27
2022-12-23T07:31:51.132Z,4.83
2022-12-23T07:34:18.131Z,4.07
2022-12-23T07:36:45.087Z,4.70
2022-12-23T07:39:12.205Z,5.17
2022-12-23T07:41:39.084Z,5.00
2022-12-23T07:44:06.287Z,5.23
2022-12-23T07:46:33.260Z,4.70
2022-12-23T07:49:00.178Z,4.07
2022-12-23T07:51:27.139Z,3.57
2022-12-23T07:53:54.023Z,3.87
2022-12-23T07:56:21.888Z,4.47
2022-12-23T07:58:53.320Z,4.00
2022-12-23T08:01:20.979Z,5.87
2022-12-23T08:03:48.086Z,4.00
2022-12-23T08:06:16.463Z,3.60
2022-12-23T08:08:44.961Z,4.73
2022-12-23T08:11:13.433Z,5.53
2022-12-23T08:13:41.879Z,6.77
2022-12-23T08:16:09.398Z,5.13
2022-12-23T08:18:38.245Z,5.30
2022-12-23T08:21:17.683Z,4.57
2022-12-23T08:23:44.806Z,4.80
2022-12-23T08:26:18.914Z,5.13
2022-12-23T08:28:46.295Z,4.13
2022-12-23T08:31:20.402Z,4.60
2022-12-23T08:33:49.120Z,4.37
2022-12-23T08:36:23.332Z,4.67
2022-12-23T08:38:54.914Z,5.47
2022-12-23T08:41:26.160Z,3.90
2022-12-23T08:43:53.626Z,4.77
2022-12-23T08:46:21.085Z,3.80
2022-12-23T08:48:49.823Z,4.10
2022-12-23T08:51:19.304Z,5.00
2022-12-23T08:53:47.155Z,4.13
2022-12-23T08:56:16.978Z,4.10
2022-12-23T08:58:45.796Z,4.37
2022-12-23T09:01:14.762Z,4.07
2022-12-23T09:03:42.022Z,5.03
2022-12-23T09:06:16.799Z,4.57
2022-12-23T09:08:44.388Z,4.37
2022-12-23T09:11:13.138Z,4.33
2022-12-23T09:13:40.723Z,5.13
2022-12-23T09:16:08.199Z,4.47
2022-12-23T09:18:35.597Z,4.57
2022-12-23T09:21:11.659Z,5.37
2022-12-23T09:23:38.586Z,4.83
2022-12-23T09:26:06.862Z,4.47
2022-12-23T09:28:33.814Z,4.57
2022-12-23T09:31:11.452Z,4.97
2022-12-23T09:33:39.112Z,5.50
2022-12-23T09:36:06.883Z,5.33
2022-12-23T09:38:34.234Z,5.00
2022-12-23T09:41:25.332Z,4.80
2022-12-23T09:44:10.533Z,5.47
2022-12-23T09:46:51.925Z,4.60
2022-12-23T09:49:20.182Z,6.00
2022-12-23T09:51:48.345Z,6.20
2022-12-23T09:54:21.612Z,4.67
2022-12-23T09:56:51.792Z,6.80
2022-12-23T09:59:24.731Z,5.63
2022-12-23T10:02:03.962Z,4.63
2022-12-23T10:05:03.091Z,6.70
2022-12-23T10:07:50.633Z,5.70
2022-12-23T10:10:24.549Z,5.57
2022-12-23T10:12:52.949Z,6.00
2022-12-23T10:15:22.013Z,5.30
2022-12-23T10:17:51.973Z,6.03
2022-12-23T10:20:30.674Z,6.13
2022-12-23T10:22:57.605Z,6.83
2022-12-23T10:25:38.097Z,5.90
2022-12-23T10:28:05.189Z,5.70
2022-12-23T10:31:00.685Z,6.53
2022-12-23T10:33:37.687Z,5.17
2022-12-23T10:36:10.474Z,5.90
2022-12-23T10:38:55.885Z,7.77
2022-12-23T10:41:31.607Z,5.07
2022-12-23T10:44:22.839Z,6.57
2022-12-23T10:46:53.943Z,5.03
2022-12-23T10:50:02.755Z,5.90
2022-12-23T10:52:33.071Z,6.50
2022-12-23T10:54:59.966Z,5.70
2022-12-23T10:57:26.989Z,7.37
2022-12-23T10:59:53.863Z,6.53
2022-12-23T11:02:37.647Z,7.53
2022-12-23T11:05:13.942Z,6.47
2022-12-23T11:07:44.503Z,7.13
2022-12-23T11:10:21.528Z,7.60
2022-12-23T11:12:53.786Z,6.73
2022-12-23T11:15:38.820Z,6.97
2022-12-23T11:18:11.760Z,7.47
2022-12-23T11:20:41.046Z,7.07
2022-12-23T11:23:28.480Z,8.03
2022-12-23T11:26:14.557Z,7.77
2022-12-23T11:28:49.665Z,7.00
2022-12-23T11:31:28.358Z,7.20
2022-12-23T11:34:21.611Z,7.67
2022-12-23T11:37:00.139Z,7.07
2022-12-23T11:39:34.087Z,7.17
2022-12-23T11:42:18.278Z,6.93
2022-12-23T11:44:48.650Z,8.23
2022-12-23T11:47:25.464Z,6.70
2022-12-23T11:50:01.608Z,6.60
2022-12-23T11:52:31.335Z,5.67
2022-12-23T11:55:02.487Z,7.30
2022-12-23T11:57:44.493Z,7.30
2022-12-23T12:00:23.639Z,6.63
2022-12-23T12:02:56.204Z,6.30
2022-12-23T12:05:25.482Z,6.60
2022-12-23T12:07:52.782Z,7.10
2022-12-23T12:10:25.388Z,6.60
2022-12-23T12:12:57.069Z,6.90
2022-12-23T12:15:42.711Z,6.20
2022-12-23T12:18:13.915Z,6.37
2022-12-23T12:20:45.221Z,8.00
2022-12-23T12:23:20.548Z,6.17
2022-12-23T12:25:51.985Z,6.33
2022-12-23T12:28:23.232Z,7.10
2022-12-23T12:31:05.184Z,6.83
2022-12-23T12:33:40.063Z,6.67
2022-12-23T12:36:19.308Z,6.47
2022-12-23T12:38:46.873Z,7.30
2022-12-23T12:41:25.055Z,5.80
2022-12-23T12:44:41.042Z,7.97
2022-12-23T12:50:18.909Z,7.40
2022-12-23T12:52:45.840Z,7.43
2022-12-23T12:55:15.421Z,7.20
2022-12-23T12:57:42.492Z,6.13
2022-12-23T13:00:18.536Z,8.23
2022-12-23T13:03:04.202Z,6.97
2022-12-23T13:06:12.462Z,6.23
2022-12-23T13:08:50.259Z,6.77
2022-12-23T13:11:34.829Z,7.73
2022-12-23T13:14:07.636Z,7.63
2022-12-23T13:16:37.721Z,7.43
2022-12-23T13:19:16.805Z,6.40
2022-12-23T13:22:18.344Z,7.10
2022-12-23T13:25:01.204Z,6.27
2022-12-23T13:27:28.474Z,7.87
2022-12-23T13:30:02.702Z,6.40
2022-12-23T13:32:41.756Z,7.97
2022-12-23T13:35:21.915Z,6.77
2022-12-23T13:38:27.584Z,7.63
2022-12-23T13:41:21.809Z,6.37
2022-12-23T13:43:59.863Z,6.83
2022-12-23T13:46:47.425Z,7.30
2022-12-23T13:49:39.975Z,7.50
2022-12-23T13:52:54.689Z,7.87
2022-12-23T13:56:02.300Z,8.27
2022-12-23T13:58:31.525Z,6.10
2022-12-23T14:01:19.680Z,8.27
2022-12-23T14:03:49.116Z,7.07
2022-12-23T14:06:21.361Z,8.30
2022-12-23T14:08:48.700Z,8.00
2022-12-23T14:11:19.903Z,6.77
2022-12-23T14:13:52.893Z,6.93
2022-12-23T14:16:37.044Z,6.97
2022-12-23T14:19:19.025Z,7.63
2022-12-23T14:22:04.434Z,7.67
2022-12-23T14:24:58.645Z,7.30
2022-12-23T14:27:34.929Z,7.17
2022-12-23T14:30:22.861Z,6.73
2022-12-23T14:32:55.812Z,6.37
2022-12-23T14:35:40.352Z,7.87
2022-12-23T14:38:15.192Z,6.50
2022-12-23T14:40:42.067Z,7.53
2022-12-23T14:43:51.296Z,7.27
2022-12-23T14:46:36.379Z,6.87
2022-12-23T14:49:37.089Z,8.00
2022-12-23T14:51:51.227Z,7.00
2022-12-23T14:54:20.762Z,6.23
2022-12-23T14:56:47.600Z,6.83
2022-12-23T14:59:30.252Z,6.73
2022-12-23T15:02:12.725Z,5.87
2022-12-23T15:04:45.238Z,7.27
2022-12-23T15:07:41.552Z,6.10
2022-12-23T15:10:18.339Z,5.40
2022-12-23T15:12:51.852Z,6.53
2022-12-23T15:15:23.658Z,6.40
2022-12-23T15:18:12.218Z,6.63
2022-12-23T15:20:39.364Z,7.57
2022-12-23T15:23:11.701Z,6.17
2022-12-23T15:25:45.220Z,7.13
2022-12-23T15:28:20.703Z,6.57
2022-12-23T15:30:52.945Z,7.60
2022-12-23T15:36:12.041Z,7.77
2022-12-23T15:38:39.307Z,7.57
2022-12-23T15:41:15.040Z,6.53
2022-12-23T15:43:43.356Z,5.53
2022-12-23T15:46:21.895Z,6.80
2022-12-23T15:48:52.240Z,7.40
2022-12-23T15:52:05.273Z,7.63
2022-12-23T15:54:33.996Z,7.03
2022-12-23T15:57:01.575Z,7.93
2022-12-23T15:59:33.771Z,7.53
2022-12-23T16:05:32.581Z,7.90
2022-12-23T16:08:12.219Z,6.67
2022-12-23T16:10:40.284Z,7.33
2022-12-23T16:13:20.874Z,6.93
2022-12-23T16:15:48.052Z,6.00
2022-12-23T16:18:25.829Z,6.63
2022-12-23T16:20:58.903Z,6.73
2022-12-23T16:23:30.365Z,7.23
2022-12-23T16:25:59.725Z,6.57
2022-12-23T16:28:35.770Z,7.17
2022-12-23T16:31:06.581Z,5.83
2022-12-23T16:33:43.758Z,6.30
2022-12-23T16:36:19.588Z,6.17
2022-12-23T16:38:48.635Z,5.57
2022-12-23T16:41:15.681Z,6.70
2022-12-23T16:43:49.565Z,6.30
2022-12-23T16:46:20.732Z,7.23
2022-12-23T16:48:56.199Z,7.93
2022-12-23T16:51:24.022Z,6.37
2022-12-23T16:53:53.813Z,6.73
2022-12-23T16:56:22.763Z,7.53
2022-12-23T16:58:49.720Z,6.90
2022-12-23T17:01:21.236Z,6.90
2022-12-23T17:03:48.174Z,6.67
2022-12-23T17:06:16.435Z,6.23
2022-12-23T17:08:43.751Z,5.97
2022-12-23T17:11:24.812Z,6.77
2022-12-23T17:13:51.864Z,7.63
2022-12-23T17:16:24.535Z,5.93
2022-12-23T17:18:53.386Z,7.40
2022-12-23T17:21:24.018Z,7.60
2022-12-23T17:23:52.252Z,7.37
2022-12-23T17:26:19.712Z,7.67
2022-12-23T17:28:46.662Z,7.80
2022-12-23T17:31:15.471Z,6.43
2022-12-23T17:33:44.042Z,7.50
2022-12-23T17:36:12.271Z,7.07
2022-12-23T17:38:39.209Z,6.97
2022-12-23T17:41:06.177Z,8.17
2022-12-23T17:43:33.185Z,8.00
2022-12-23T17:46:00.158Z,8.90
2022-12-23T17:48:31.628Z,7.73
2022-12-23T17:50:59.134Z,7.30
2022-12-23T17:53:26.022Z,6.73
2022-12-23T17:55:52.892Z,6.90
2022-12-23T17:58:20.004Z,7.13
2022-12-23T18:00:47.018Z,7.57
2022-12-23T18:03:24.116Z,6.57
2022-12-23T18:05:57.430Z,7.67
2022-12-23T18:08:28.313Z,6.13
2022-12-23T18:10:55.319Z,6.70
2022-12-23T18:13:22.420Z,6.83
2022-12-23T18:15:50.351Z,6.60
2022-12-23T18:18:27.225Z,6.83
2022-12-23T18:20:56.360Z,7.20
2022-12-23T18:23:26.628Z,7.57
2022-12-23T18:25:54.186Z,7.83
2022-12-23T18:28:21.111Z,8.50
2022-12-23T18:30:48.093Z,6.23
2022-12-23T18:33:15.018Z,6.43
2022-12-23T18:35:44.558Z,6.80
2022-12-23T18:38:11.886Z,6.73
2022-12-23T18:40:39.811Z,7.27
2022-12-23T18:43:07.465Z,7.63
2022-12-23T18:45:50.682Z,6.70
2022-12-23T18:48:19.499Z,6.57
2022-12-23T18:50:46.975Z,7.53
2022-12-23T18:53:23.795Z,8.20
2022-12-23T18:55:52.351Z,7.73
2022-12-23T18:58:19.867Z,5.77
2022-12-23T19:00:47.910Z,7.33
2022-12-23T19:03:29.025Z,7.03
2022-12-23T19:05:57.473Z,6.20
2022-12-23T19:08:27.553Z,7.20
2022-12-23T19:10:56.046Z,6.03
2022-12-23T19:13:23.127Z,6.20
2022-12-23T19:15:50.265Z,7.87
2022-12-23T19:18:21.846Z,7.10
2022-12-23T19:20:49.116Z,8.27
2022-12-23T19:23:16.888Z,5.57
2022-12-23T19:25:52.670Z,7.40
2022-12-23T19:28:22.677Z,7.60
2022-12-23T19:30:49.882Z,7.07
2022-12-23T19:33:16.839Z,8.00
2022-12-23T19:35:44.242Z,7.23
2022-12-23T19:38:12.577Z,7.73
2022-12-23T19:40:40.398Z,7.87
2022-12-23T19:43:07.747Z,8.07
2022-12-23T19:45:34.689Z,7.20
2022-12-23T19:48:01.658Z,6.17
2022-12-23T19:50:28.579Z,7.50
2022-12-23T19:52:56.643Z,6.73
2022-12-23T19:55:23.933Z,6.97
2022-12-23T19:57:51.946Z,6.53
2022-12-23T20:00:19.032Z,7.20
2022-12-23T20:02:45.985Z,6.13
2022-12-23T20:05:12.887Z,6.90
2022-12-23T20:07:39.920Z,7.03
2022-12-23T20:10:07.600Z,6.70
2022-12-23T20:12:34.542Z,6.57
2022-12-23T20:15:01.615Z,8.70
2022-12-23T20:17:28.585Z,7.07
2022-12-23T20:19:55.539Z,6.63
2022-12-23T20:22:22.441Z,6.87
2022-12-23T20:24:50.115Z,7.07
2022-12-23T20:27:20.145Z,5.83
2022-12-23T20:29:49.666Z,6.73
2022-12-23T20:32:16.704Z,6.77
2022-12-23T20:34:43.560Z,8.53
2022-12-23T20:37:11.904Z,6.10
2022-12-23T20:39:38.845Z,7.27
2022-12-23T20:42:05.761Z,6.97
2022-12-23T20:44:34.920Z,6.03
2022-12-23T20:47:03.120Z,8.77
2022-12-23T20:49:30.142Z,7.13
2022-12-23T20:51:57.083Z,5.83
2022-12-23T20:54:31.658Z,7.20
2022-12-23T20:56:59.414Z,7.63
2022-12-23T20:59:26.384Z,7.90
2022-12-23T21:01:53.443Z,6.83
2022-12-23T21:04:20.727Z,7.13
2022-12-23T21:06:47.836Z,7.50
2022-12-23T21:09:16.172Z,6.87
2022-12-23T21:11:45.015Z,7.63
2022-12-23T21:14:12.071Z,7.77
2022-12-23T21:16:39.627Z,7.13
2022-12-23T21:19:08.292Z,6.67
2022-12-23T21:21:35.519Z,6.80
2022-12-23T21:24:04.891Z,7.37
2022-12-23T21:26:33.568Z,7.43
2022-12-23T21:29:01.480Z,6.67
2022-12-23T21:31:30.198Z,9.17
2022-12-23T21:33:58.265Z,7.20
2022-12-23T21:36:35.394Z,7.57
2022-12-23T21:39:02.514Z,7.20
2022-12-23T21:41:36.879Z,7.70
2022-12-23T21:44:04.746Z,6.77
2022-12-23T21:46:32.022Z,6.63
2022-12-23T21:48:59.359Z,8.80
2022-12-23T21:51:38.909Z,7.17
2022-12-23T21:54:08.126Z,8.00
2022-12-23T21:56:35.376Z,6.97
2022-12-23T21:59:04.416Z,7.53
2022-12-23T22:01:32.213Z,6.23
2022-12-23T22:03:59.609Z,7.70
2022-12-23T22:06:32.145Z,7.03
2022-12-23T22:08:59.791Z,6.43
2022-12-23T22:11:29.483Z,7.33
2022-12-23T22:13:57.370Z,6.97
2022-12-23T22:16:26.291Z,7.50
2022-12-23T22:18:53.912Z,7.30
2022-12-23T22:21:23.478Z,5.87
2022-12-23T22:23:51.446Z,7.67
2022-12-23T22:26:25.442Z,6.50
2022-12-23T22:28:54.838Z,7.07
2022-12-23T22:31:32.531Z,7.43
2022-12-23T22:33:59.766Z,7.87
2022-12-23T22:36:27.025Z,7.83
2022-12-23T22:38:58.643Z,6.47
2022-12-23T22:41:27.300Z,7.20
2022-12-23T22:43:54.822Z,6.13
2022-12-23T22:46:21.909Z,7.27
2022-12-23T22:48:48.843Z,7.33
2022-12-23T22:51:18.607Z,7.40
2022-12-23T22:53:45.723Z,8.07
2022-12-23T22:56:14.617Z,7.23
2022-12-23T22:58:41.689Z,7.20
2022-12-23T23:01:27.550Z,7.23
2022-12-23T23:03:58.780Z,7.17
2022-12-23T23:06:39.879Z,6.77
2022-12-23T23:09:08.359Z,6.83
2022-12-23T23:11:35.473Z,8.33
2022-12-23T23:14:02.398Z,5.77
2022-12-23T23:16:29.422Z,7.17
2022-12-23T23:18:57.985Z,6.97
2022-12-23T23:21:25.086Z,6.33
2022-12-23T23:23:52.653Z,6.23
2022-12-23T23:26:20.517Z,6.80
2022-12-23T23:28:47.728Z,7.07
2022-12-23T23:31:41.018Z,6.60
2022-12-23T23:34:01.563Z,7.10
2022-12-23T23:36:28.535Z,6.93
2022-12-23T23:38:55.455Z,7.13
2022-12-23T23:41:23.942Z,8.80
2022-12-23T23:43:51.648Z,8.50
2022-12-23T23:46:18.730Z,7.23
2022-12-23T23:48:45.719Z,7.10
2022-12-23T23:51:12.969Z,7.90
2022-12-23T23:53:40.586Z,7.13
2022-12-23T23:56:08.491Z,6.67
2022-12-23T23:58:36.109Z,6.33
